sensor_id;sensor_type;location;lat;lon;timestamp;pressure;altitude;pressure_sealevel;temperature;humidity
30819;BME280;17546;42.674;23.284;2022-08-19T00:00:23;94503.56;;;32.05;31.95
30819;BME280;17546;42.674;23.284;2022-08-19T00:02:49;94497.09;;;32.05;32.08
30819;BME280;17546;42.674;23.284;2022-08-19T00:05:15;94489.81;;;32.02;31.78
30819;BME280;17546;42.674;23.284;2022-08-19T00:07:42;94499.31;;;31.90;32.29
30819;BME280;17546;42.674;23.284;2022-08-19T00:10:09;94499.66;;;31.83;32.35
30819;BME280;17546;42.674;23.284;2022-08-19T00:12:35;94494.50;;;31.79;32.17
30819;BME280;17546;42.674;23.284;2022-08-19T00:15:04;94501.16;;;31.68;33.29
30819;BME280;17546;42.674;23.284;2022-08-19T00:17:30;94505.94;;;31.79;32.73
30819;BME280;17546;42.674;23.284;2022-08-19T00:19:55;94511.66;;;31.79;32.47
30819;BME280;17546;42.674;23.284;2022-08-19T00:22:21;94514.00;;;31.83;32.85
30819;BME280;17546;42.674;23.284;2022-08-19T00:24:46;94515.75;;;31.74;32.66
30819;BME280;17546;42.674;23.284;2022-08-19T00:27:13;94518.88;;;31.80;32.78
30819;BME280;17546;42.674;23.284;2022-08-19T00:29:38;94518.34;;;31.84;32.86
30819;BME280;17546;42.674;23.284;2022-08-19T00:32:05;94517.59;;;31.83;32.06
30819;BME280;17546;42.674;23.284;2022-08-19T00:34:31;94514.38;;;31.75;31.12
30819;BME280;17546;42.674;23.284;2022-08-19T00:36:57;94502.63;;;31.53;31.28
30819;BME280;17546;42.674;23.284;2022-08-19T00:39:22;94517.03;;;31.71;31.54
30819;BME280;17546;42.674;23.284;2022-08-19T00:41:49;94508.56;;;31.73;31.80
30819;BME280;17546;42.674;23.284;2022-08-19T00:44:24;94498.03;;;31.78;31.30
30819;BME280;17546;42.674;23.284;2022-08-19T00:46:51;94500.06;;;31.75;31.71
30819;BME280;17546;42.674;23.284;2022-08-19T00:51:47;94501.53;;;31.76;31.17
30819;BME280;17546;42.674;23.284;2022-08-19T00:54:14;94500.22;;;31.79;31.35
30819;BME280;17546;42.674;23.284;2022-08-19T00:56:40;94504.56;;;31.80;31.65
30819;BME280;17546;42.674;23.284;2022-08-19T00:59:06;94500.50;;;31.85;31.26
30819;BME280;17546;42.674;23.284;2022-08-19T01:01:38;94495.97;;;31.80;31.58
30819;BME280;17546;42.674;23.284;2022-08-19T01:04:04;94501.72;;;31.80;31.67
30819;BME280;17546;42.674;23.284;2022-08-19T01:06:30;94503.19;;;31.81;31.72
30819;BME280;17546;42.674;23.284;2022-08-19T01:08:58;94493.03;;;31.78;31.68
30819;BME280;17546;42.674;23.284;2022-08-19T01:11:24;94495.78;;;31.76;32.05
30819;BME280;17546;42.674;23.284;2022-08-19T01:13:52;94501.72;;;31.80;31.89
30819;BME280;17546;42.674;23.284;2022-08-19T01:16:19;94500.31;;;31.65;32.43
30819;BME280;17546;42.674;23.284;2022-08-19T01:18:46;94493.97;;;31.67;32.35
30819;BME280;17546;42.674;23.284;2022-08-19T01:21:23;94508.56;;;31.73;32.25
30819;BME280;17546;42.674;23.284;2022-08-19T01:23:54;94497.00;;;31.71;32.19
30819;BME280;17546;42.674;23.284;2022-08-19T01:26:22;94494.16;;;31.71;31.60
30819;BME280;17546;42.674;23.284;2022-08-19T01:28:51;94497.09;;;31.73;32.31
30819;BME280;17546;42.674;23.284;2022-08-19T01:31:22;94495.31;;;31.66;32.07
30819;BME280;17546;42.674;23.284;2022-08-19T01:33:49;94507.34;;;31.62;32.21
30819;BME280;17546;42.674;23.284;2022-08-19T01:36:22;94503.56;;;31.58;32.13
30819;BME280;17546;42.674;23.284;2022-08-19T01:38:48;94506.44;;;31.58;32.38
30819;BME280;17546;42.674;23.284;2022-08-19T01:41:15;94502.63;;;31.53;32.77
30819;BME280;17546;42.674;23.284;2022-08-19T01:43:42;94502.03;;;31.41;32.81
30819;BME280;17546;42.674;23.284;2022-08-19T01:46:07;94505.75;;;31.43;32.68
30819;BME280;17546;42.674;23.284;2022-08-19T01:48:38;94502.16;;;31.43;32.79
30819;BME280;17546;42.674;23.284;2022-08-19T01:51:05;94501.00;;;31.18;32.93
30819;BME280;17546;42.674;23.284;2022-08-19T01:53:31;94509.22;;;31.26;33.12
30819;BME280;17546;42.674;23.284;2022-08-19T01:55:57;94499.88;;;31.09;33.53
30819;BME280;17546;42.674;23.284;2022-08-19T01:58:28;94498.28;;;31.06;33.72
30819;BME280;17546;42.674;23.284;2022-08-19T02:00:56;94505.34;;;30.89;34.27
30819;BME280;17546;42.674;23.284;2022-08-19T02:03:22;94507.22;;;30.99;33.90
30819;BME280;17546;42.674;23.284;2022-08-19T02:05:53;94512.94;;;30.99;34.37
30819;BME280;17546;42.674;23.284;2022-08-19T02:08:18;94497.91;;;30.98;34.30
30819;BME280;17546;42.674;23.284;2022-08-19T02:10:44;94511.53;;;31.00;34.22
30819;BME280;17546;42.674;23.284;2022-08-19T02:13:12;94503.81;;;31.02;34.26
30819;BME280;17546;42.674;23.284;2022-08-19T02:15:38;94509.25;;;30.96;34.09
30819;BME280;17546;42.674;23.284;2022-08-19T02:18:04;94495.69;;;30.97;34.46
30819;BME280;17546;42.674;23.284;2022-08-19T02:20:30;94499.16;;;30.95;34.48
30819;BME280;17546;42.674;23.284;2022-08-19T02:22:55;94502.59;;;30.92;34.78
30819;BME280;17546;42.674;23.284;2022-08-19T02:25:21;94505.97;;;30.88;34.56
30819;BME280;17546;42.674;23.284;2022-08-19T02:27:47;94503.94;;;30.91;34.45
30819;BME280;17546;42.674;23.284;2022-08-19T02:30:15;94506.47;;;30.84;34.77
30819;BME280;17546;42.674;23.284;2022-08-19T02:32:41;94493.84;;;30.74;34.97
30819;BME280;17546;42.674;23.284;2022-08-19T02:35:07;94489.88;;;30.81;34.87
30819;BME280;17546;42.674;23.284;2022-08-19T02:37:33;94497.31;;;30.86;34.95
30819;BME280;17546;42.674;23.284;2022-08-19T02:40:17;94497.47;;;30.60;35.54
30819;BME280;17546;42.674;23.284;2022-08-19T02:42:44;94506.22;;;30.64;35.33
30819;BME280;17546;42.674;23.284;2022-08-19T02:45:18;94504.84;;;30.65;35.01
30819;BME280;17546;42.674;23.284;2022-08-19T02:47:45;94499.03;;;30.63;35.24
30819;BME280;17546;42.674;23.284;2022-08-19T02:50:14;94507.50;;;30.61;35.05
30819;BME280;17546;42.674;23.284;2022-08-19T02:52:40;94503.09;;;30.58;35.16
30819;BME280;17546;42.674;23.284;2022-08-19T02:55:06;94514.31;;;30.54;35.21
30819;BME280;17546;42.674;23.284;2022-08-19T02:57:32;94516.75;;;30.46;35.11
30819;BME280;17546;42.674;23.284;2022-08-19T02:59:58;94520.13;;;30.56;34.80
30819;BME280;17546;42.674;23.284;2022-08-19T03:02:24;94523.50;;;30.53;34.77
30819;BME280;17546;42.674;23.284;2022-08-19T03:04:49;94518.22;;;30.61;34.70
30819;BME280;17546;42.674;23.284;2022-08-19T03:07:17;94525.00;;;30.54;34.72
30819;BME280;17546;42.674;23.284;2022-08-19T03:09:43;94518.44;;;30.51;34.80
30819;BME280;17546;42.674;23.284;2022-08-19T03:12:09;94519.28;;;30.54;34.92
30819;BME280;17546;42.674;23.284;2022-08-19T03:14:35;94521.63;;;30.43;35.15
30819;BME280;17546;42.674;23.284;2022-08-19T03:17:01;94514.66;;;30.33;35.50
30819;BME280;17546;42.674;23.284;2022-08-19T03:19:28;94510.63;;;30.38;35.48
30819;BME280;17546;42.674;23.284;2022-08-19T03:21:53;94513.19;;;30.32;35.47
30819;BME280;17546;42.674;23.284;2022-08-19T03:24:20;94504.16;;;30.23;35.57
30819;BME280;17546;42.674;23.284;2022-08-19T03:26:48;94512.81;;;30.12;35.99
30819;BME280;17546;42.674;23.284;2022-08-19T03:29:15;94517.06;;;30.24;35.62
30819;BME280;17546;42.674;23.284;2022-08-19T03:31:42;94516.44;;;30.12;35.96
30819;BME280;17546;42.674;23.284;2022-08-19T03:34:10;94523.00;;;30.28;35.45
30819;BME280;17546;42.674;23.284;2022-08-19T03:36:37;94519.50;;;30.16;35.60
30819;BME280;17546;42.674;23.284;2022-08-19T03:39:03;94516.97;;;30.08;35.96
30819;BME280;17546;42.674;23.284;2022-08-19T03:41:37;94515.38;;;30.05;35.90
30819;BME280;17546;42.674;23.284;2022-08-19T03:44:03;94524.78;;;30.08;35.44
30819;BME280;17546;42.674;23.284;2022-08-19T03:46:32;94527.66;;;30.08;35.83
30819;BME280;17546;42.674;23.284;2022-08-19T03:48:59;94530.41;;;30.06;35.25
30819;BME280;17546;42.674;23.284;2022-08-19T03:51:32;94536.41;;;29.98;35.70
30819;BME280;17546;42.674;23.284;2022-08-19T03:53:59;94546.25;;;29.81;36.18
30819;BME280;17546;42.674;23.284;2022-08-19T03:56:27;94536.50;;;29.86;35.58
30819;BME280;17546;42.674;23.284;2022-08-19T03:58:54;94545.53;;;29.95;35.60
30819;BME280;17546;42.674;23.284;2022-08-19T04:01:22;94534.63;;;29.91;35.33
30819;BME280;17546;42.674;23.284;2022-08-19T04:03:48;94545.63;;;29.97;35.55
30819;BME280;17546;42.674;23.284;2022-08-19T04:06:23;94547.94;;;29.86;35.81
30819;BME280;17546;42.674;23.284;2022-08-19T04:08:50;94548.25;;;29.79;35.85
30819;BME280;17546;42.674;23.284;2022-08-19T04:11:18;94554.69;;;29.79;35.90
30819;BME280;17546;42.674;23.284;2022-08-19T04:13:49;94541.38;;;29.70;35.62
30819;BME280;17546;42.674;23.284;2022-08-19T04:16:16;94555.63;;;29.70;36.24
30819;BME280;17546;42.674;23.284;2022-08-19T04:18:42;94551.72;;;29.77;36.28
30819;BME280;17546;42.674;23.284;2022-08-19T04:21:08;94553.44;;;29.82;36.24
30819;BME280;17546;42.674;23.284;2022-08-19T04:23:39;94559.03;;;29.80;36.55
30819;BME280;17546;42.674;23.284;2022-08-19T04:26:05;94553.31;;;29.80;36.65
30819;BME280;17546;42.674;23.284;2022-08-19T04:28:31;94564.72;;;29.80;36.62
30819;BME280;17546;42.674;23.284;2022-08-19T04:30:56;94559.47;;;29.89;36.28
30819;BME280;17546;42.674;23.284;2022-08-19T04:33:24;94549.22;;;29.97;36.11
30819;BME280;17546;42.674;23.284;2022-08-19T04:35:51;94564.56;;;30.04;35.99
30819;BME280;17546;42.674;23.284;2022-08-19T04:38:20;94556.81;;;30.20;35.70
30819;BME280;17546;42.674;23.284;2022-08-19T04:40:50;94551.88;;;30.21;35.75
30819;BME280;17546;42.674;23.284;2022-08-19T04:43:36;94551.34;;;30.24;35.47
30819;BME280;17546;42.674;23.284;2022-08-19T04:46:10;94558.88;;;30.32;35.23
30819;BME280;17546;42.674;23.284;2022-08-19T04:48:36;94556.13;;;30.34;35.47
30819;BME280;17546;42.674;23.284;2022-08-19T04:51:06;94553.19;;;30.32;35.90
30819;BME280;17546;42.674;23.284;2022-08-19T04:53:34;94556.53;;;30.42;35.73
30819;BME280;17546;42.674;23.284;2022-08-19T04:56:09;94561.19;;;30.49;35.43
30819;BME280;17546;42.674;23.284;2022-08-19T04:58:35;94563.19;;;30.60;35.37
30819;BME280;17546;42.674;23.284;2022-08-19T05:01:02;94571.84;;;30.62;35.19
30819;BME280;17546;42.674;23.284;2022-08-19T05:03:27;94560.00;;;30.68;35.16
30819;BME280;17546;42.674;23.284;2022-08-19T05:06:05;94564.53;;;30.73;35.23
30819;BME280;17546;42.674;23.284;2022-08-19T05:08:33;94570.34;;;30.75;35.15
30819;BME280;17546;42.674;23.284;2022-08-19T05:10:59;94567.84;;;30.67;34.94
30819;BME280;17546;42.674;23.284;2022-08-19T05:13:25;94569.50;;;30.73;35.01
30819;BME280;17546;42.674;23.284;2022-08-19T05:15:56;94571.63;;;30.72;34.98
30819;BME280;17546;42.674;23.284;2022-08-19T05:18:23;94564.16;;;30.65;35.00
30819;BME280;17546;42.674;23.284;2022-08-19T05:21:13;94567.84;;;30.67;35.14
30819;BME280;17546;42.674;23.284;2022-08-19T05:23:57;94567.94;;;30.69;34.79
30819;BME280;17546;42.674;23.284;2022-08-19T05:26:24;94567.63;;;30.63;35.03
30819;BME280;17546;42.674;23.284;2022-08-19T05:28:53;94572.28;;;30.71;34.75
30819;BME280;17546;42.674;23.284;2022-08-19T05:31:19;94569.72;;;30.77;34.56
30819;BME280;17546;42.674;23.284;2022-08-19T05:33:45;94573.75;;;30.72;34.61
30819;BME280;17546;42.674;23.284;2022-08-19T05:36:11;94571.31;;;30.66;34.71
30819;BME280;17546;42.674;23.284;2022-08-19T05:38:36;94569.63;;;30.75;34.34
30819;BME280;17546;42.674;23.284;2022-08-19T05:41:12;94573.13;;;30.87;34.19
30819;BME280;17546;42.674;23.284;2022-08-19T05:43:38;94561.25;;;30.79;34.51
30819;BME280;17546;42.674;23.284;2022-08-19T05:46:05;94568.78;;;30.86;34.23
30819;BME280;17546;42.674;23.284;2022-08-19T05:48:32;94573.31;;;30.91;34.54
30819;BME280;17546;42.674;23.284;2022-08-19T05:50:57;94570.13;;;30.99;34.38
30819;BME280;17546;42.674;23.284;2022-08-19T05:53:27;94564.50;;;31.01;34.04
30819;BME280;17546;42.674;23.284;2022-08-19T05:55:52;94571.00;;;30.74;34.72
30819;BME280;17546;42.674;23.284;2022-08-19T05:58:18;94564.59;;;30.45;35.52
30819;BME280;17546;42.674;23.284;2022-08-19T06:00:43;94577.56;;;30.76;35.24
30819;BME280;17546;42.674;23.284;2022-08-19T06:03:10;94576.72;;;30.87;35.03
30819;BME280;17546;42.674;23.284;2022-08-19T06:05:35;94576.16;;;30.91;35.27
30819;BME280;17546;42.674;23.284;2022-08-19T06:08:01;94576.09;;;30.61;35.40
30819;BME280;17546;42.674;23.284;2022-08-19T06:10:26;94577.19;;;30.54;35.61
30819;BME280;17546;42.674;23.284;2022-08-19T06:12:56;94578.84;;;30.87;35.34
30819;BME280;17546;42.674;23.284;2022-08-19T06:15:22;94576.28;;;30.93;35.09
30819;BME280;17546;42.674;23.284;2022-08-19T06:17:51;94576.34;;;31.09;35.23
30819;BME280;17546;42.674;23.284;2022-08-19T06:20:16;94584.69;;;31.19;35.03
30819;BME280;17546;42.674;23.284;2022-08-19T06:22:45;94577.28;;;31.14;34.83
30819;BME280;17546;42.674;23.284;2022-08-19T06:25:12;94572.13;;;31.26;34.60
30819;BME280;17546;42.674;23.284;2022-08-19T06:27:39;94579.34;;;30.97;34.97
30819;BME280;17546;42.674;23.284;2022-08-19T06:30:05;94570.22;;;31.30;34.34
30819;BME280;17546;42.674;23.284;2022-08-19T06:32:31;94578.06;;;31.30;34.09
30819;BME280;17546;42.674;23.284;2022-08-19T06:34:56;94584.31;;;30.83;34.57
30819;BME280;17546;42.674;23.284;2022-08-19T06:37:22;94575.09;;;30.84;34.71
30819;BME280;17546;42.674;23.284;2022-08-19T06:39:48;94573.56;;;30.67;35.03
30819;BME280;17546;42.674;23.284;2022-08-19T06:42:14;94568.91;;;31.18;34.10
30819;BME280;17546;42.674;23.284;2022-08-19T06:44:45;94565.53;;;31.37;33.79
30819;BME280;17546;42.674;23.284;2022-08-19T06:47:16;94575.50;;;31.06;34.56
30819;BME280;17546;42.674;23.284;2022-08-19T06:49:42;94577.53;;;31.34;34.50
30819;BME280;17546;42.674;23.284;2022-08-19T06:52:09;94569.19;;;31.54;34.12
30819;BME280;17546;42.674;23.284;2022-08-19T06:54:37;94576.47;;;31.57;33.97
30819;BME280;17546;42.674;23.284;2022-08-19T06:57:10;94580.75;;;31.71;33.34
30819;BME280;17546;42.674;23.284;2022-08-19T06:59:40;94577.34;;;31.75;33.61
30819;BME280;17546;42.674;23.284;2022-08-19T07:02:06;94583.34;;;31.81;33.38
30819;BME280;17546;42.674;23.284;2022-08-19T07:04:34;94576.47;;;31.57;33.66
30819;BME280;17546;42.674;23.284;2022-08-19T07:07:09;94582.97;;;31.73;33.51
30819;BME280;17546;42.674;23.284;2022-08-19T07:09:35;94576.88;;;31.97;33.23
30819;BME280;17546;42.674;23.284;2022-08-19T07:12:04;94584.63;;;31.78;33.66
30819;BME280;17546;42.674;23.284;2022-08-19T07:14:29;94583.91;;;31.62;33.43
30819;BME280;17546;42.674;23.284;2022-08-19T07:16:56;94579.69;;;32.10;33.16
30819;BME280;17546;42.674;23.284;2022-08-19T07:19:24;94588.81;;;32.39;32.64
30819;BME280;17546;42.674;23.284;2022-08-19T07:21:56;94587.25;;;32.36;32.74
30819;BME280;17546;42.674;23.284;2022-08-19T07:24:24;94591.03;;;32.56;32.79
30819;BME280;17546;42.674;23.284;2022-08-19T07:26:52;94587.78;;;32.64;32.36
30819;BME280;17546;42.674;23.284;2022-08-19T07:29:18;94586.69;;;32.89;32.18
30819;BME280;17546;42.674;23.284;2022-08-19T07:31:45;94585.31;;;32.90;31.38
30819;BME280;17546;42.674;23.284;2022-08-19T07:34:11;94591.41;;;32.82;31.84
30819;BME280;17546;42.674;23.284;2022-08-19T07:36:41;94578.94;;;33.09;30.91
30819;BME280;17546;42.674;23.284;2022-08-19T07:39:14;94579.50;;;33.78;31.29
30819;BME280;17546;42.674;23.284;2022-08-19T07:41:41;94582.22;;;33.91;30.21
30819;BME280;17546;42.674;23.284;2022-08-19T07:44:07;94572.78;;;33.89;30.17
30819;BME280;17546;42.674;23.284;2022-08-19T07:46:35;94588.38;;;34.42;30.36
30819;BME280;17546;42.674;23.284;2022-08-19T07:49:03;94578.59;;;34.69;29.67
30819;BME280;17546;42.674;23.284;2022-08-19T07:51:29;94585.59;;;35.06;29.68
30819;BME280;17546;42.674;23.284;2022-08-19T07:53:54;94589.56;;;35.16;28.19
30819;BME280;17546;42.674;23.284;2022-08-19T07:56:21;94591.97;;;35.46;28.65
30819;BME280;17546;42.674;23.284;2022-08-19T07:58:49;94585.72;;;35.76;28.10
30819;BME280;17546;42.674;23.284;2022-08-19T08:01:18;94585.31;;;35.86;27.64
30819;BME280;17546;42.674;23.284;2022-08-19T08:04:04;94586.06;;;35.86;27.65
30819;BME280;17546;42.674;23.284;2022-08-19T08:06:48;94573.44;;;36.22;27.92
30819;BME280;17546;42.674;23.284;2022-08-19T08:09:35;94584.91;;;36.46;27.98
30819;BME280;17546;42.674;23.284;2022-08-19T08:12:10;94579.63;;;36.62;27.53
30819;BME280;17546;42.674;23.284;2022-08-19T08:14:48;94583.19;;;37.15;26.50
30819;BME280;17546;42.674;23.284;2022-08-19T08:17:16;94581.25;;;37.23;26.10
30819;BME280;17546;42.674;23.284;2022-08-19T08:19:43;94582.13;;;37.58;25.92
30819;BME280;17546;42.674;23.284;2022-08-19T08:22:11;94571.47;;;37.37;25.18
30819;BME280;17546;42.674;23.284;2022-08-19T08:25:13;94572.06;;;37.61;25.26
30819;BME280;17546;42.674;23.284;2022-08-19T08:27:40;94562.19;;;37.12;24.96
30819;BME280;17546;42.674;23.284;2022-08-19T08:30:11;94565.47;;;37.89;24.26
30819;BME280;17546;42.674;23.284;2022-08-19T08:32:40;94561.53;;;37.74;23.72
30819;BME280;17546;42.674;23.284;2022-08-19T08:35:09;94569.94;;;37.62;23.88
30819;BME280;17546;42.674;23.284;2022-08-19T08:37:35;94564.53;;;38.11;23.75
30819;BME280;17546;42.674;23.284;2022-08-19T08:42:57;94557.94;;;38.42;22.72
30819;BME280;17546;42.674;23.284;2022-08-19T08:45:30;94564.25;;;38.69;22.52
30819;BME280;17546;42.674;23.284;2022-08-19T08:48:02;94559.50;;;37.81;23.49
30819;BME280;17546;42.674;23.284;2022-08-19T08:50:34;94559.50;;;38.13;23.31
30819;BME280;17546;42.674;23.284;2022-08-19T08:53:03;94559.59;;;37.85;23.83
30819;BME280;17546;42.674;23.284;2022-08-19T08:55:31;94547.13;;;38.45;24.13
30819;BME280;17546;42.674;23.284;2022-08-19T09:00:41;94538.72;;;38.96;21.80
30819;BME280;17546;42.674;23.284;2022-08-19T09:03:21;94543.63;;;38.89;21.52
30819;BME280;17546;42.674;23.284;2022-08-19T09:06:06;94543.81;;;38.97;21.46
30819;BME280;17546;42.674;23.284;2022-08-19T09:09:13;94535.19;;;38.61;21.94
30819;BME280;17546;42.674;23.284;2022-08-19T09:14:35;94541.13;;;38.69;21.23
30819;BME280;17546;42.674;23.284;2022-08-19T09:17:03;94546.13;;;39.47;21.61
30819;BME280;17546;42.674;23.284;2022-08-19T09:19:35;94538.53;;;39.28;20.54
30819;BME280;17546;42.674;23.284;2022-08-19T09:22:03;94532.41;;;39.50;19.99
30819;BME280;17546;42.674;23.284;2022-08-19T09:24:30;94543.13;;;39.90;20.58
30819;BME280;17546;42.674;23.284;2022-08-19T09:26:56;94524.50;;;40.05;19.09
30819;BME280;17546;42.674;23.284;2022-08-19T09:29:21;94526.88;;;40.21;20.18
30819;BME280;17546;42.674;23.284;2022-08-19T09:31:47;94529.53;;;39.52;19.26
30819;BME280;17546;42.674;23.284;2022-08-19T09:34:13;94526.97;;;40.27;20.01
30819;BME280;17546;42.674;23.284;2022-08-19T09:36:41;94523.59;;;40.49;20.17
30819;BME280;17546;42.674;23.284;2022-08-19T09:39:08;94523.00;;;40.59;18.78
30819;BME280;17546;42.674;23.284;2022-08-19T09:41:34;94519.22;;;39.90;18.65
30819;BME280;17546;42.674;23.284;2022-08-19T09:44:00;94513.47;;;39.92;18.48
30819;BME280;17546;42.674;23.284;2022-08-19T09:46:27;94525.00;;;40.44;18.70
30819;BME280;17546;42.674;23.284;2022-08-19T09:48:53;94516.22;;;40.38;18.69
30819;BME280;17546;42.674;23.284;2022-08-19T09:51:22;94518.34;;;39.81;18.51
30819;BME280;17546;42.674;23.284;2022-08-19T09:53:49;94519.59;;;39.65;18.45
30819;BME280;17546;42.674;23.284;2022-08-19T09:56:16;94520.16;;;40.67;19.44
30819;BME280;17546;42.674;23.284;2022-08-19T09:58:42;94515.78;;;40.03;18.84
30819;BME280;17546;42.674;23.284;2022-08-19T10:01:08;94513.41;;;40.46;18.34
30819;BME280;17546;42.674;23.284;2022-08-19T10:03:35;94503.16;;;40.39;18.11
30819;BME280;17546;42.674;23.284;2022-08-19T10:06:03;94504.91;;;40.65;17.96
30819;BME280;17546;42.674;23.284;2022-08-19T10:08:31;94495.41;;;40.58;17.58
30819;BME280;17546;42.674;23.284;2022-08-19T10:10:58;94502.84;;;40.74;18.40
30819;BME280;17546;42.674;23.284;2022-08-19T10:13:27;94492.41;;;40.50;17.47
30819;BME280;17546;42.674;23.284;2022-08-19T10:15:56;94492.69;;;40.73;17.73
30819;BME280;17546;42.674;23.284;2022-08-19T10:18:23;94485.84;;;40.47;17.20
30819;BME280;17546;42.674;23.284;2022-08-19T10:20:50;94487.41;;;40.59;17.09
30819;BME280;17546;42.674;23.284;2022-08-19T10:23:16;94488.94;;;40.64;17.23
30819;BME280;17546;42.674;23.284;2022-08-19T10:25:46;94479.06;;;40.94;18.48
30819;BME280;17546;42.674;23.284;2022-08-19T10:28:11;94480.78;;;41.21;17.93
30819;BME280;17546;42.674;23.284;2022-08-19T10:30:40;94469.28;;;41.38;18.04
30819;BME280;17546;42.674;23.284;2022-08-19T10:33:07;94474.56;;;41.64;17.62
30819;BME280;17546;42.674;23.284;2022-08-19T10:35:32;94476.16;;;41.89;16.91
30819;BME280;17546;42.674;23.284;2022-08-19T10:37:58;94470.44;;;42.10;17.17
30819;BME280;17546;42.674;23.284;2022-08-19T10:40:26;94474.00;;;41.94;16.31
30819;BME280;17546;42.674;23.284;2022-08-19T10:42:54;94462.31;;;41.84;16.94
30819;BME280;17546;42.674;23.284;2022-08-19T10:45:25;94459.00;;;41.24;17.40
30819;BME280;17546;42.674;23.284;2022-08-19T10:47:54;94466.25;;;41.19;17.27
30819;BME280;17546;42.674;23.284;2022-08-19T10:50:19;94460.56;;;41.38;17.44
30819;BME280;17546;42.674;23.284;2022-08-19T10:53:07;94465.03;;;41.55;16.85
30819;BME280;17546;42.674;23.284;2022-08-19T10:55:36;94460.13;;;41.86;17.86
30819;BME280;17546;42.674;23.284;2022-08-19T10:58:23;94456.09;;;41.22;17.03
30819;BME280;17546;42.674;23.284;2022-08-19T11:00:58;94462.34;;;41.90;17.30
30819;BME280;17546;42.674;23.284;2022-08-19T11:03:26;94460.88;;;41.91;17.10
30819;BME280;17546;42.674;23.284;2022-08-19T11:06:03;94469.59;;;41.93;17.24
30819;BME280;17546;42.674;23.284;2022-08-19T11:08:31;94463.78;;;41.93;17.50
30819;BME280;17546;42.674;23.284;2022-08-19T11:10:59;94457.13;;;40.74;17.46
30819;BME280;17546;42.674;23.284;2022-08-19T11:13:34;94455.53;;;40.61;17.58
30819;BME280;17546;42.674;23.284;2022-08-19T11:16:08;94451.06;;;41.31;18.55
30819;BME280;17546;42.674;23.284;2022-08-19T11:18:36;94451.06;;;41.31;17.35
30819;BME280;17546;42.674;23.284;2022-08-19T11:21:26;94444.91;;;40.86;17.37
30819;BME280;17546;42.674;23.284;2022-08-19T11:23:55;94443.44;;;40.85;17.53
30819;BME280;17546;42.674;23.284;2022-08-19T11:26:23;94441.16;;;40.71;17.51
30819;BME280;17546;42.674;23.284;2022-08-19T11:28:49;94442.66;;;40.80;17.35
30819;BME280;17546;42.674;23.284;2022-08-19T11:31:19;94439.50;;;40.54;18.13
30819;BME280;17546;42.674;23.284;2022-08-19T11:33:45;94440.56;;;40.18;18.20
30819;BME280;17546;42.674;23.284;2022-08-19T11:36:12;94431.59;;;40.62;18.08
30819;BME280;17546;42.674;23.284;2022-08-19T11:38:37;94432.59;;;40.89;17.83
30819;BME280;17546;42.674;23.284;2022-08-19T11:41:05;94428.28;;;40.23;17.86
30819;BME280;17546;42.674;23.284;2022-08-19T11:43:33;94423.13;;;40.14;17.88
30819;BME280;17546;42.674;23.284;2022-08-19T11:45:58;94429.47;;;40.67;17.64
30819;BME280;17546;42.674;23.284;2022-08-19T11:48:24;94421.59;;;40.76;17.96
30819;BME280;17546;42.674;23.284;2022-08-19T11:50:52;94422.72;;;40.46;17.89
30819;BME280;17546;42.674;23.284;2022-08-19T11:53:18;94417.69;;;40.48;17.82
30819;BME280;17546;42.674;23.284;2022-08-19T11:55:46;94419.56;;;40.95;18.06
30819;BME280;17546;42.674;23.284;2022-08-19T11:58:13;94426.09;;;40.20;18.32
30819;BME280;17546;42.674;23.284;2022-08-19T12:00:40;94413.63;;;40.07;17.97
30819;BME280;17546;42.674;23.284;2022-08-19T12:03:06;94408.66;;;40.91;17.92
30819;BME280;17546;42.674;23.284;2022-08-19T12:05:32;94401.63;;;41.17;17.90
30819;BME280;17546;42.674;23.284;2022-08-19T12:07:57;94393.50;;;41.07;17.80
30819;BME280;17546;42.674;23.284;2022-08-19T12:10:23;94399.47;;;41.25;17.55
30819;BME280;17546;42.674;23.284;2022-08-19T12:12:49;94395.53;;;40.84;17.72
30819;BME280;17546;42.674;23.284;2022-08-19T12:15:14;94394.09;;;40.87;17.28
30819;BME280;17546;42.674;23.284;2022-08-19T12:17:43;94389.44;;;41.49;17.35
30819;BME280;17546;42.674;23.284;2022-08-19T12:20:10;94386.28;;;41.10;17.67
30819;BME280;17546;42.674;23.284;2022-08-19T12:22:37;94382.84;;;41.40;17.33
30819;BME280;17546;42.674;23.284;2022-08-19T12:25:04;94380.72;;;41.51;17.67
30819;BME280;17546;42.674;23.284;2022-08-19T12:27:30;94379.41;;;41.70;17.45
30819;BME280;17546;42.674;23.284;2022-08-19T12:29:55;94385.25;;;41.79;17.19
30819;BME280;17546;42.674;23.284;2022-08-19T12:32:22;94379.44;;;41.81;17.06
30819;BME280;17546;42.674;23.284;2022-08-19T12:34:49;94372.19;;;41.90;16.82
30819;BME280;17546;42.674;23.284;2022-08-19T12:37:15;94363.53;;;41.98;16.97
30819;BME280;17546;42.674;23.284;2022-08-19T12:39:42;94371.16;;;41.26;17.17
30819;BME280;17546;42.674;23.284;2022-08-19T12:42:09;94364.88;;;41.70;17.32
30819;BME280;17546;42.674;23.284;2022-08-19T12:44:37;94359.81;;;41.77;17.47
30819;BME280;17546;42.674;23.284;2022-08-19T12:47:04;94360.56;;;41.90;17.18
30819;BME280;17546;42.674;23.284;2022-08-19T12:49:30;94363.47;;;41.88;17.13
30819;BME280;17546;42.674;23.284;2022-08-19T12:52:01;94355.53;;;42.07;17.18
30819;BME280;17546;42.674;23.284;2022-08-19T12:54:28;94359.19;;;42.05;16.73
30819;BME280;17546;42.674;23.284;2022-08-19T12:56:54;94362.03;;;41.95;16.70
30819;BME280;17546;42.674;23.284;2022-08-19T12:59:20;94349.00;;;42.13;16.60
30819;BME280;17546;42.674;23.284;2022-08-19T13:01:46;94355.59;;;42.23;17.13
30819;BME280;17546;42.674;23.284;2022-08-19T13:04:11;94341.03;;;42.38;16.35
30819;BME280;17546;42.674;23.284;2022-08-19T13:06:37;94346.13;;;42.23;17.24